createdAt,value
2023-04-18T00:00:30.636Z,0.00
2023-04-18T00:01:30.634Z,0.00
2023-04-18T00:02:30.710Z,0.00
2023-04-18T00:03:30.853Z,0.00
2023-04-18T00:04:30.814Z,0.00
2023-04-18T00:05:30.564Z,0.00
2023-04-18T00:06:30.588Z,0.00
2023-04-18T00:07:30.546Z,0.00
2023-04-18T00:08:30.535Z,0.00
2023-04-18T00:09:30.563Z,0.00
2023-04-18T00:10:30.538Z,0.00
2023-04-18T00:11:30.530Z,0.00
2023-04-18T00:12:30.490Z,0.00
2023-04-18T00:13:30.478Z,0.00
2023-04-18T00:14:30.517Z,0.00
2023-04-18T00:15:30.486Z,0.00
2023-04-18T00:16:30.482Z,0.00
2023-04-18T00:17:30.515Z,0.00
2023-04-18T00:18:30.426Z,0.00
2023-04-18T00:19:30.430Z,0.00
2023-04-18T00:20:30.415Z,0.00
2023-04-18T00:21:30.425Z,0.00
2023-04-18T00:22:30.385Z,0.00
2023-04-18T00:23:30.400Z,0.00
2023-04-18T00:24:30.385Z,0.00
2023-04-18T00:25:30.369Z,0.00
2023-04-18T00:26:30.351Z,0.00
2023-04-18T00:27:30.332Z,0.00
2023-04-18T00:28:30.339Z,0.00
2023-04-18T00:29:30.324Z,0.00
2023-04-18T00:30:30.338Z,0.00
2023-04-18T00:31:30.346Z,0.00
2023-04-18T00:32:30.295Z,0.00
2023-04-18T00:33:30.270Z,0.00
2023-04-18T00:34:30.269Z,0.00
2023-04-18T00:35:30.273Z,0.00
2023-04-18T00:36:30.250Z,0.00
2023-04-18T00:37:30.246Z,0.00
2023-04-18T00:38:30.216Z,0.00
2023-04-18T00:39:30.210Z,0.00
2023-04-18T00:40:30.221Z,0.00
2023-04-18T00:41:30.222Z,0.00
2023-04-18T00:42:30.189Z,0.00
2023-04-18T00:43:30.184Z,0.00
2023-04-18T00:44:30.151Z,0.00
2023-04-18T00:45:30.158Z,0.00
2023-04-18T00:46:30.221Z,0.00
2023-04-18T00:47:30.151Z,0.00
2023-04-18T00:48:30.108Z,0.00
2023-04-18T00:49:30.105Z,0.00
2023-04-18T00:50:30.090Z,0.00
2023-04-18T00:51:30.101Z,0.00
2023-04-18T00:52:30.065Z,0.00
2023-04-18T00:53:30.084Z,0.00
2023-04-18T00:54:30.042Z,0.00
2023-04-18T00:55:30.053Z,0.00
2023-04-18T00:56:30.041Z,0.00
2023-04-18T00:57:30.033Z,0.00
2023-04-18T00:58:30.031Z,0.00
2023-04-18T00:59:29.987Z,0.00
2023-04-18T01:00:29.982Z,0.00
2023-04-18T01:01:29.977Z,0.00
2023-04-18T01:02:30.121Z,0.00
2023-04-18T01:03:30.293Z,0.00
2023-04-18T01:04:30.093Z,0.00
2023-04-18T01:05:29.980Z,0.00
2023-04-18T01:06:29.916Z,0.00
2023-04-18T01:07:29.946Z,0.00
2023-04-18T01:08:29.893Z,0.00
2023-04-18T01:09:29.890Z,0.00
2023-04-18T01:10:29.887Z,0.00
2023-04-18T01:11:29.872Z,0.00
2023-04-18T01:12:29.888Z,0.00
2023-04-18T01:13:29.851Z,0.00
2023-04-18T01:14:29.857Z,0.00
2023-04-18T01:15:29.824Z,0.00
2023-04-18T01:16:29.812Z,0.00
2023-04-18T01:17:29.832Z,0.00
2023-04-18T01:18:29.798Z,0.00
2023-04-18T01:19:29.780Z,0.00
2023-04-18T01:20:29.767Z,0.00
2023-04-18T01:21:29.776Z,0.00
2023-04-18T01:22:29.745Z,0.00
2023-04-18T01:23:29.750Z,0.00
2023-04-18T01:24:29.732Z,0.00
2023-04-18T01:25:29.699Z,0.00
2023-04-18T01:26:29.693Z,0.00
2023-04-18T01:27:29.718Z,0.00
2023-04-18T01:28:29.681Z,0.00
2023-04-18T01:29:29.716Z,0.00
2023-04-18T01:30:29.660Z,0.00
2023-04-18T01:31:29.877Z,0.00
2023-04-18T01:32:29.675Z,0.00
2023-04-18T01:33:29.621Z,0.00
2023-04-18T01:34:29.629Z,0.00
2023-04-18T01:35:29.608Z,0.00
2023-04-18T01:36:29.615Z,0.00
2023-04-18T01:37:29.595Z,0.00
2023-04-18T01:38:29.590Z,0.00
2023-04-18T01:39:29.560Z,0.00
2023-04-18T01:40:29.556Z,0.00
2023-04-18T01:41:29.550Z,0.00
2023-04-18T01:42:29.543Z,0.00
2023-04-18T01:43:29.520Z,0.00
2023-04-18T01:44:29.507Z,0.00
2023-04-18T01:45:29.497Z,0.00
2023-04-18T01:46:29.610Z,0.00
2023-04-18T01:47:29.494Z,0.00
2023-04-18T01:48:29.472Z,0.00
2023-04-18T01:49:29.482Z,0.00
2023-04-18T01:50:29.438Z,0.00
2023-04-18T01:51:29.427Z,0.00
2023-04-18T01:52:29.420Z,0.00
2023-04-18T01:53:29.410Z,0.00
2023-04-18T01:54:29.414Z,0.00
2023-04-18T01:55:29.393Z,0.00
2023-04-18T01:56:29.409Z,0.00
2023-04-18T01:57:29.362Z,0.00
2023-04-18T01:58:29.373Z,0.00
2023-04-18T01:59:29.339Z,0.00
2023-04-18T02:00:29.452Z,0.00
2023-04-18T02:01:29.337Z,0.00
2023-04-18T02:02:29.477Z,0.00
2023-04-18T02:03:29.470Z,0.00
2023-04-18T02:04:29.288Z,0.00
2023-04-18T02:05:29.296Z,0.00
2023-04-18T02:06:29.283Z,0.00
2023-04-18T02:07:29.251Z,0.00
2023-04-18T02:08:29.250Z,0.00
2023-04-18T02:09:29.233Z,0.00
2023-04-18T02:10:29.221Z,0.00
2023-04-18T02:11:29.234Z,0.00
2023-04-18T02:12:29.227Z,0.00
2023-04-18T02:13:29.197Z,0.00
2023-04-18T02:14:29.187Z,0.00
2023-04-18T02:15:29.188Z,0.00
2023-04-18T02:16:29.229Z,0.00
2023-04-18T02:17:29.196Z,0.00
2023-04-18T02:18:29.166Z,0.00
2023-04-18T02:19:29.156Z,0.00
2023-04-18T02:20:29.157Z,0.00
2023-04-18T02:21:29.138Z,0.00
2023-04-18T02:22:29.100Z,0.00
2023-04-18T02:23:29.103Z,0.00
2023-04-18T02:24:29.076Z,0.00
2023-04-18T02:25:29.056Z,0.00
2023-04-18T02:26:29.086Z,0.00
2023-04-18T02:27:29.042Z,0.00
2023-04-18T02:28:29.062Z,0.00
2023-04-18T02:29:29.041Z,0.00
2023-04-18T02:30:29.024Z,0.00
2023-04-18T02:31:29.118Z,0.00
2023-04-18T02:32:29.068Z,0.00
2023-04-18T02:33:28.978Z,0.00
2023-04-18T02:34:28.989Z,0.00
2023-04-18T02:35:28.970Z,0.00
2023-04-18T02:36:28.990Z,0.00
2023-04-18T02:37:28.971Z,0.00
2023-04-18T02:38:28.941Z,0.00
2023-04-18T02:39:28.933Z,0.00
2023-04-18T02:40:28.909Z,0.00
2023-04-18T02:41:28.937Z,0.00
2023-04-18T02:42:28.893Z,0.00
2023-04-18T02:43:28.914Z,0.00
2023-04-18T02:44:28.885Z,0.00
2023-04-18T02:45:28.862Z,0.00
2023-04-18T02:46:28.881Z,0.00
2023-04-18T02:47:29.492Z,0.00
2023-04-18T02:48:28.878Z,0.00
2023-04-18T02:49:28.824Z,0.00
2023-04-18T02:50:28.805Z,0.00
2023-04-18T02:51:28.796Z,0.00
2023-04-18T02:52:28.790Z,0.00
2023-04-18T02:53:28.766Z,0.00
2023-04-18T02:54:28.770Z,0.00
2023-04-18T02:55:28.738Z,0.00
2023-04-18T02:56:28.739Z,0.00
2023-04-18T02:57:28.743Z,0.00
2023-04-18T02:58:28.715Z,0.00
2023-04-18T02:59:28.719Z,0.00
2023-04-18T03:00:28.697Z,0.00
2023-04-18T03:01:28.757Z,0.00
2023-04-18T03:02:28.803Z,0.00
2023-04-18T03:03:28.731Z,0.00
2023-04-18T03:04:28.687Z,0.00
2023-04-18T03:05:28.676Z,0.00
2023-04-18T03:06:28.627Z,0.00
2023-04-18T03:07:28.618Z,0.00
2023-04-18T03:08:28.616Z,0.00
2023-04-18T03:09:28.607Z,0.00
2023-04-18T03:10:28.621Z,0.00
2023-04-18T03:11:28.653Z,0.00
2023-04-18T03:12:28.571Z,0.00
2023-04-18T03:13:28.639Z,0.00
2023-04-18T03:14:28.539Z,0.00
2023-04-18T03:15:28.550Z,0.00
2023-04-18T03:16:28.580Z,0.00
2023-04-18T03:17:28.568Z,0.00
2023-04-18T03:18:28.511Z,0.00
2023-04-18T03:19:28.489Z,0.00
2023-04-18T03:20:28.529Z,0.00
2023-04-18T03:21:28.469Z,0.00
2023-04-18T03:22:28.457Z,0.00
2023-04-18T03:23:28.466Z,0.00
2023-04-18T03:24:28.443Z,0.00
2023-04-18T03:25:28.427Z,0.00
2023-04-18T03:26:28.452Z,0.00
2023-04-18T03:27:28.413Z,0.00
2023-04-18T03:28:28.408Z,0.00
2023-04-18T03:29:28.381Z,0.00
2023-04-18T03:30:28.374Z,0.00
2023-04-18T03:31:28.419Z,0.00
2023-04-18T03:32:28.387Z,0.00
2023-04-18T03:33:28.339Z,0.00
2023-04-18T03:34:28.361Z,0.00
2023-04-18T03:35:28.333Z,0.00
2023-04-18T03:36:28.327Z,0.00
2023-04-18T03:37:28.305Z,0.00
2023-04-18T03:38:28.301Z,0.00
2023-04-18T03:39:28.269Z,0.00
2023-04-18T03:40:28.282Z,0.00
2023-04-18T03:41:28.257Z,0.00
2023-04-18T03:42:28.266Z,0.00
2023-04-18T03:43:28.228Z,0.00
2023-04-18T03:44:28.239Z,0.00
2023-04-18T03:45:28.257Z,0.00
2023-04-18T03:46:28.289Z,0.00
2023-04-18T03:47:28.258Z,0.00
2023-04-18T03:48:28.182Z,0.00
2023-04-18T03:49:28.163Z,0.00
2023-04-18T03:50:28.172Z,0.00
2023-04-18T03:51:28.152Z,0.00
2023-04-18T03:52:29.842Z,0.00
2023-04-18T03:53:28.152Z,0.00
2023-04-18T03:54:28.136Z,0.00
2023-04-18T03:55:28.101Z,0.00
2023-04-18T03:56:28.129Z,0.00
2023-04-18T03:57:28.098Z,0.00
2023-04-18T03:58:28.079Z,0.00
2023-04-18T03:59:28.080Z,0.00
2023-04-18T04:00:28.063Z,0.00
2023-04-18T04:01:28.047Z,0.00
2023-04-18T04:02:28.212Z,0.00
2023-04-18T04:03:28.098Z,0.00
2023-04-18T04:04:28.046Z,0.00
2023-04-18T04:05:28.005Z,0.00
2023-04-18T04:06:27.982Z,0.00
2023-04-18T04:07:27.972Z,0.00
2023-04-18T04:08:28.366Z,0.00
2023-04-18T04:09:27.969Z,0.00
2023-04-18T04:10:27.947Z,0.00
2023-04-18T04:11:27.941Z,0.00
2023-04-18T04:12:27.951Z,0.00
2023-04-18T04:13:27.936Z,0.00
2023-04-18T04:14:27.907Z,0.00
2023-04-18T04:15:27.933Z,0.00
2023-04-18T04:16:27.967Z,0.00
2023-04-18T04:17:27.951Z,0.00
2023-04-18T04:18:27.967Z,0.00
2023-04-18T04:19:27.841Z,0.00
2023-04-18T04:20:27.864Z,0.00
2023-04-18T04:21:27.853Z,0.00
2023-04-18T04:22:27.827Z,0.00
2023-04-18T04:23:27.809Z,0.00
2023-04-18T04:24:27.796Z,0.00
2023-04-18T04:25:27.798Z,0.00
2023-04-18T04:26:27.810Z,0.00
2023-04-18T04:27:27.759Z,0.00
2023-04-18T04:28:27.764Z,0.00
2023-04-18T04:29:27.751Z,0.00
2023-04-18T04:30:27.745Z,0.00
2023-04-18T04:31:27.769Z,0.00
2023-04-18T04:32:27.731Z,0.00
2023-04-18T04:33:27.704Z,0.00
2023-04-18T04:34:27.720Z,0.00
2023-04-18T04:35:27.679Z,0.00
2023-04-18T04:36:27.676Z,0.00
2023-04-18T04:37:27.662Z,0.00
2023-04-18T04:38:27.665Z,0.00
2023-04-18T04:39:27.664Z,0.00
2023-04-18T04:40:27.637Z,0.00
2023-04-18T04:41:27.617Z,0.00
2023-04-18T04:42:27.626Z,0.00
2023-04-18T04:43:27.595Z,0.00
2023-04-18T04:44:27.601Z,0.00
2023-04-18T04:45:27.604Z,0.00
2023-04-18T04:46:27.585Z,0.00
2023-04-18T04:47:27.578Z,0.00
2023-04-18T04:48:27.530Z,0.00
2023-04-18T04:49:27.534Z,5.62
2023-04-18T04:50:27.541Z,5.62
2023-04-18T04:51:27.506Z,5.62
2023-04-18T04:52:27.506Z,5.62
2023-04-18T04:53:27.476Z,5.62
2023-04-18T04:54:27.469Z,5.62
2023-04-18T04:55:27.471Z,5.62
2023-04-18T04:56:27.469Z,5.62
2023-04-18T04:57:27.449Z,5.62
2023-04-18T04:58:27.436Z,5.62
2023-04-18T04:59:27.441Z,5.62
2023-04-18T05:00:27.427Z,5.62
2023-04-18T05:01:27.484Z,5.62
2023-04-18T05:02:27.519Z,11.25
2023-04-18T05:03:27.488Z,11.25
2023-04-18T05:04:27.461Z,11.25
2023-04-18T05:05:27.365Z,11.25
2023-04-18T05:06:28.045Z,11.25
2023-04-18T05:07:27.349Z,11.25
2023-04-18T05:08:27.320Z,11.25
2023-04-18T05:09:27.333Z,16.88
2023-04-18T05:10:27.649Z,16.88
2023-04-18T05:11:27.313Z,16.88
2023-04-18T05:12:27.278Z,16.88
2023-04-18T05:13:27.263Z,16.88
2023-04-18T05:14:27.276Z,16.88
2023-04-18T05:15:27.289Z,16.88
2023-04-18T05:16:27.302Z,16.88
2023-04-18T05:17:27.258Z,22.50
2023-04-18T05:18:27.234Z,22.50
2023-04-18T05:19:27.207Z,22.50
2023-04-18T05:20:27.211Z,28.12
2023-04-18T05:21:27.218Z,22.50
2023-04-18T05:22:27.171Z,22.50
2023-04-18T05:23:27.190Z,28.12
2023-04-18T05:24:27.162Z,28.12
2023-04-18T05:25:27.141Z,28.12
2023-04-18T05:26:27.169Z,33.75
2023-04-18T05:27:27.114Z,33.75
2023-04-18T05:28:27.250Z,33.75
2023-04-18T05:29:27.107Z,33.75
2023-04-18T05:30:27.815Z,33.75
2023-04-18T05:31:27.147Z,33.75
2023-04-18T05:32:27.222Z,33.75
2023-04-18T05:33:27.054Z,39.38
2023-04-18T05:34:27.742Z,39.38
2023-04-18T05:35:27.059Z,39.38
2023-04-18T05:36:27.730Z,39.38
2023-04-18T05:37:27.038Z,39.38
2023-04-18T05:38:28.046Z,39.38
2023-04-18T05:39:27.041Z,45.00
2023-04-18T05:40:27.697Z,45.00
2023-04-18T05:41:26.977Z,45.00
2023-04-18T05:42:27.016Z,45.00
2023-04-18T05:43:26.980Z,50.62
2023-04-18T05:44:26.987Z,50.62
2023-04-18T05:45:26.955Z,50.62
2023-04-18T05:46:27.001Z,50.62
2023-04-18T05:47:26.978Z,50.62
2023-04-18T05:48:26.912Z,50.62
2023-04-18T05:49:26.911Z,45.00
2023-04-18T05:50:26.886Z,50.62
2023-04-18T05:51:26.860Z,56.25
2023-04-18T05:52:26.876Z,61.88
2023-04-18T05:53:26.859Z,67.50
2023-04-18T05:54:26.844Z,61.88
2023-04-18T05:55:26.849Z,61.88
2023-04-18T05:56:26.812Z,61.88
2023-04-18T05:57:26.813Z,56.25
2023-04-18T05:58:26.800Z,56.25
2023-04-18T05:59:26.821Z,61.88
2023-04-18T06:00:26.782Z,67.50
2023-04-18T06:01:28.252Z,73.12
2023-04-18T06:02:26.845Z,67.50
2023-04-18T06:03:26.946Z,67.50
2023-04-18T06:04:26.806Z,73.12
2023-04-18T06:05:26.956Z,67.50
2023-04-18T06:06:26.720Z,67.50
2023-04-18T06:07:26.699Z,67.50
2023-04-18T06:08:26.692Z,67.50
2023-04-18T06:09:26.703Z,78.75
2023-04-18T06:10:26.675Z,90.00
2023-04-18T06:11:26.651Z,101.25
2023-04-18T06:12:26.639Z,101.25
2023-04-18T06:13:26.651Z,106.88
2023-04-18T06:14:26.626Z,112.50
2023-04-18T06:15:26.640Z,106.88
2023-04-18T06:16:26.685Z,95.62
2023-04-18T06:17:26.624Z,84.38
2023-04-18T06:18:26.580Z,73.12
2023-04-18T06:19:26.593Z,73.12
2023-04-18T06:20:27.517Z,73.12
2023-04-18T06:21:26.576Z,73.12
2023-04-18T06:22:26.553Z,73.12
2023-04-18T06:23:26.534Z,73.12
2023-04-18T06:24:26.529Z,78.75
2023-04-18T06:25:26.516Z,73.12
2023-04-18T06:26:26.514Z,73.12
2023-04-18T06:27:31.661Z,73.12
2023-04-18T06:28:27.487Z,73.12
2023-04-18T06:29:26.470Z,73.12
2023-04-18T06:30:26.465Z,73.12
2023-04-18T06:31:26.495Z,73.12
2023-04-18T06:32:26.589Z,73.12
2023-04-18T06:33:26.432Z,73.12
2023-04-18T06:34:26.404Z,84.38
2023-04-18T06:35:26.794Z,90.00
2023-04-18T06:36:26.380Z,101.25
2023-04-18T06:37:26.391Z,118.12
2023-04-18T06:38:26.354Z,123.75
2023-04-18T06:39:26.386Z,129.38
2023-04-18T06:40:26.357Z,123.75
2023-04-18T06:41:26.338Z,129.38
2023-04-18T06:42:26.342Z,135.00
2023-04-18T06:43:26.335Z,135.00
2023-04-18T06:44:26.345Z,140.62
2023-04-18T06:45:26.360Z,146.25
2023-04-18T06:46:26.351Z,151.88
2023-04-18T06:47:26.299Z,146.25
2023-04-18T06:48:26.356Z,140.62
2023-04-18T06:49:26.733Z,129.38
2023-04-18T06:50:26.238Z,129.38
2023-04-18T06:51:26.379Z,129.38
2023-04-18T06:52:26.228Z,135.00
2023-04-18T06:53:26.219Z,140.62
2023-04-18T06:54:26.218Z,146.25
2023-04-18T06:55:26.197Z,146.25
2023-04-18T06:56:26.181Z,140.62
2023-04-18T06:57:26.171Z,135.00
2023-04-18T06:58:26.167Z,135.00
2023-04-18T06:59:26.147Z,140.62
2023-04-18T07:00:26.142Z,140.62
2023-04-18T07:01:26.171Z,146.25
2023-04-18T07:02:26.214Z,146.25
2023-04-18T07:03:26.169Z,140.62
2023-04-18T07:04:26.328Z,135.00
2023-04-18T07:05:26.101Z,135.00
2023-04-18T07:06:26.074Z,135.00
2023-04-18T07:07:26.054Z,135.00
2023-04-18T07:08:26.113Z,123.75
2023-04-18T07:09:26.133Z,112.50
2023-04-18T07:10:26.051Z,106.88
2023-04-18T07:11:26.116Z,106.88
2023-04-18T07:12:26.070Z,101.25
2023-04-18T07:13:25.984Z,90.00
2023-04-18T07:14:26.101Z,78.75
2023-04-18T07:15:26.234Z,78.75
2023-04-18T07:16:25.977Z,73.12
2023-04-18T07:17:25.993Z,78.75
2023-04-18T07:18:36.618Z,78.75
2023-04-18T07:19:26.952Z,84.38
2023-04-18T07:20:25.921Z,78.75
2023-04-18T07:21:25.919Z,78.75
2023-04-18T07:22:25.921Z,84.38
2023-04-18T07:23:25.882Z,90.00
2023-04-18T07:24:25.894Z,95.62
2023-04-18T07:25:25.879Z,90.00
2023-04-18T07:26:25.844Z,95.62
2023-04-18T07:27:25.854Z,101.25
2023-04-18T07:28:25.831Z,112.50
2023-04-18T07:29:25.850Z,112.50
2023-04-18T07:30:25.827Z,106.88
2023-04-18T07:31:25.936Z,106.88
2023-04-18T07:32:25.868Z,112.50
2023-04-18T07:33:25.808Z,112.50
2023-04-18T07:34:25.756Z,123.75
2023-04-18T07:35:25.773Z,129.38
2023-04-18T07:36:25.766Z,157.50
2023-04-18T07:37:25.735Z,157.50
2023-04-18T07:38:25.744Z,146.25
2023-04-18T07:39:25.738Z,146.25
2023-04-18T07:40:25.693Z,135.00
2023-04-18T07:41:25.723Z,123.75
2023-04-18T07:42:25.691Z,123.75
2023-04-18T07:43:25.710Z,118.12
2023-04-18T07:44:25.652Z,123.75
2023-04-18T07:45:25.650Z,123.75
2023-04-18T07:46:25.676Z,123.75
2023-04-18T07:47:26.868Z,123.75
2023-04-18T07:48:25.646Z,123.75
2023-04-18T07:49:25.636Z,123.75
2023-04-18T07:50:25.593Z,123.75
2023-04-18T07:51:25.606Z,123.75
2023-04-18T07:52:25.610Z,118.12
2023-04-18T07:53:25.568Z,129.38
2023-04-18T07:54:25.547Z,135.00
2023-04-18T07:55:25.548Z,168.75
2023-04-18T07:56:25.536Z,180.00
2023-04-18T07:57:25.546Z,196.88
2023-04-18T07:58:25.530Z,196.88
2023-04-18T07:59:25.514Z,191.25
2023-04-18T08:00:25.487Z,180.00
2023-04-18T08:01:25.506Z,180.00
2023-04-18T08:02:25.697Z,202.50
2023-04-18T08:03:25.625Z,213.75
2023-04-18T08:04:27.622Z,213.75
2023-04-18T08:05:25.542Z,196.88
2023-04-18T08:06:25.442Z,191.25
2023-04-18T08:07:25.415Z,191.25
2023-04-18T08:08:25.417Z,208.12
2023-04-18T08:09:25.435Z,225.00
2023-04-18T08:10:25.989Z,230.62
2023-04-18T08:11:25.410Z,225.00
2023-04-18T08:12:26.201Z,236.25
2023-04-18T08:13:25.526Z,247.50
2023-04-18T08:14:26.215Z,247.50
2023-04-18T08:15:25.879Z,258.75
2023-04-18T08:16:27.040Z,241.88
2023-04-18T08:17:25.359Z,236.25
2023-04-18T08:18:25.592Z,236.25
2023-04-18T08:19:25.601Z,225.00
2023-04-18T08:20:25.776Z,225.00
2023-04-18T08:21:25.583Z,230.62
2023-04-18T08:22:25.532Z,230.62
2023-04-18T08:23:25.250Z,236.25
2023-04-18T08:24:25.253Z,236.25
2023-04-18T08:25:25.243Z,230.62
2023-04-18T08:26:25.218Z,230.62
2023-04-18T08:27:25.212Z,230.62
2023-04-18T08:28:25.192Z,225.00
2023-04-18T08:29:25.204Z,213.75
2023-04-18T08:30:25.155Z,213.75
2023-04-18T08:31:25.191Z,202.50
2023-04-18T08:32:25.193Z,191.25
2023-04-18T08:33:25.181Z,191.25
2023-04-18T08:34:25.140Z,202.50
2023-04-18T08:35:25.117Z,225.00
2023-04-18T08:36:25.105Z,230.62
2023-04-18T08:37:25.120Z,225.00
2023-04-18T08:38:25.090Z,230.62
2023-04-18T08:39:25.470Z,225.00
2023-04-18T08:40:25.070Z,236.25
2023-04-18T08:41:25.094Z,247.50
2023-04-18T08:42:25.057Z,264.38
2023-04-18T08:43:25.036Z,275.62
2023-04-18T08:44:25.032Z,298.12
2023-04-18T08:45:25.161Z,331.88
2023-04-18T08:46:25.226Z,343.12
2023-04-18T08:47:25.716Z,348.75
2023-04-18T08:48:25.019Z,292.50
2023-04-18T08:49:24.998Z,309.38
2023-04-18T08:50:24.971Z,360.00
2023-04-18T08:51:24.994Z,354.38
2023-04-18T08:52:24.960Z,393.75
2023-04-18T08:53:24.996Z,405.00
2023-04-18T08:54:27.151Z,410.62
2023-04-18T08:55:24.940Z,382.50
2023-04-18T08:56:24.897Z,337.50
2023-04-18T08:57:24.900Z,343.12
2023-04-18T08:58:24.886Z,331.88
2023-04-18T08:59:24.881Z,303.75
2023-04-18T09:00:24.852Z,315.00
2023-04-18T09:01:24.889Z,286.88
2023-04-18T09:02:24.927Z,253.12
2023-04-18T09:03:24.928Z,270.00
2023-04-18T09:04:24.859Z,270.00
2023-04-18T09:05:24.798Z,270.00
2023-04-18T09:06:25.550Z,270.00
2023-04-18T09:07:24.786Z,230.62
2023-04-18T09:08:24.796Z,247.50
2023-04-18T09:09:24.788Z,202.50
2023-04-18T09:10:24.775Z,202.50
2023-04-18T09:11:24.749Z,202.50
2023-04-18T09:12:24.722Z,225.00
2023-04-18T09:13:24.701Z,213.75
2023-04-18T09:14:24.713Z,174.38
2023-04-18T09:15:24.688Z,157.50
2023-04-18T09:16:24.735Z,174.38
2023-04-18T09:17:25.410Z,185.62
2023-04-18T09:18:24.669Z,168.75
2023-04-18T09:19:24.807Z,146.25
2023-04-18T09:20:24.679Z,157.50
2023-04-18T09:21:25.323Z,140.62
2023-04-18T09:22:24.661Z,146.25
2023-04-18T09:23:25.365Z,151.88
2023-04-18T09:24:25.031Z,157.50
2023-04-18T09:25:25.341Z,168.75
2023-04-18T09:26:24.592Z,163.12
2023-04-18T09:27:24.743Z,151.88
2023-04-18T09:28:24.607Z,157.50
2023-04-18T09:29:25.562Z,157.50
2023-04-18T09:30:24.593Z,163.12
2023-04-18T09:31:24.759Z,151.88
2023-04-18T09:32:24.568Z,135.00
2023-04-18T09:33:25.218Z,129.38
2023-04-18T09:34:24.488Z,135.00
2023-04-18T09:35:25.210Z,140.62
2023-04-18T09:36:24.510Z,157.50
2023-04-18T09:37:25.443Z,140.62
2023-04-18T09:38:24.464Z,140.62
2023-04-18T09:39:25.117Z,168.75
2023-04-18T09:40:24.530Z,241.88
2023-04-18T09:41:25.147Z,264.38
2023-04-18T09:42:26.747Z,219.38
2023-04-18T09:43:25.374Z,196.88
2023-04-18T09:44:24.382Z,213.75
2023-04-18T09:45:25.124Z,196.88
2023-04-18T09:46:24.458Z,225.00
2023-04-18T09:47:25.119Z,286.88
2023-04-18T09:48:24.351Z,247.50
2023-04-18T09:49:25.061Z,258.75
2023-04-18T09:50:24.439Z,292.50
2023-04-18T09:51:25.050Z,326.25
2023-04-18T09:52:24.293Z,264.38
2023-04-18T09:53:25.009Z,241.88
2023-04-18T09:54:24.316Z,258.75
2023-04-18T09:55:24.991Z,281.25
2023-04-18T09:56:24.260Z,309.38
2023-04-18T09:57:25.262Z,292.50
2023-04-18T09:58:24.229Z,275.62
2023-04-18T09:59:25.240Z,264.38
2023-04-18T10:00:24.533Z,270.00
2023-04-18T10:01:24.246Z,286.88
2023-04-18T10:02:24.239Z,331.88
2023-04-18T10:03:25.690Z,348.75
2023-04-18T10:04:24.285Z,320.62
2023-04-18T10:05:24.904Z,315.00
2023-04-18T10:06:24.159Z,258.75
2023-04-18T10:07:24.825Z,264.38
2023-04-18T10:08:24.219Z,270.00
2023-04-18T10:09:24.176Z,275.62
2023-04-18T10:10:24.112Z,270.00
2023-04-18T10:11:24.349Z,320.62
2023-04-18T10:12:24.099Z,309.38
2023-04-18T10:13:24.055Z,298.12
2023-04-18T10:14:24.060Z,315.00
2023-04-18T10:15:24.086Z,303.75
2023-04-18T10:16:24.162Z,281.25
2023-04-18T10:17:24.093Z,264.38
2023-04-18T10:18:24.074Z,236.25
2023-04-18T10:19:23.998Z,247.50
2023-04-18T10:20:24.022Z,230.62
2023-04-18T10:21:24.025Z,253.12
2023-04-18T10:22:23.980Z,292.50
2023-04-18T10:23:24.755Z,348.75
2023-04-18T10:24:23.962Z,331.88
2023-04-18T10:25:23.932Z,298.12
2023-04-18T10:26:23.940Z,326.25
2023-04-18T10:27:23.927Z,405.00
2023-04-18T10:28:24.023Z,371.25
2023-04-18T10:29:23.902Z,393.75
2023-04-18T10:30:23.877Z,371.25
2023-04-18T10:31:24.038Z,365.62
2023-04-18T10:32:24.991Z,466.88
2023-04-18T10:34:24.566Z,388.12
2023-04-18T10:35:23.864Z,360.00
2023-04-18T10:36:24.548Z,399.38
2023-04-18T10:37:23.848Z,405.00
2023-04-18T10:38:25.007Z,438.75
2023-04-18T10:39:23.814Z,427.50
2023-04-18T10:40:24.487Z,393.75
2023-04-18T10:41:23.788Z,376.88
2023-04-18T10:42:24.810Z,427.50
2023-04-18T10:43:23.770Z,354.38
2023-04-18T10:44:24.346Z,309.38
2023-04-18T10:45:23.785Z,303.75
2023-04-18T10:46:31.850Z,298.12
2023-04-18T10:47:24.858Z,298.12
2023-04-18T10:48:24.064Z,309.38
2023-04-18T10:49:26.399Z,354.38
2023-04-18T10:50:23.669Z,382.50
2023-04-18T10:51:23.653Z,331.88
2023-04-18T10:52:23.674Z,337.50
2023-04-18T10:53:23.660Z,320.62
2023-04-18T10:54:23.640Z,275.62
2023-04-18T10:55:23.652Z,230.62
2023-04-18T10:56:23.607Z,230.62
2023-04-18T10:57:23.606Z,258.75
2023-04-18T10:58:23.602Z,281.25
2023-04-18T10:59:23.641Z,286.88
2023-04-18T11:00:23.608Z,275.62
2023-04-18T11:01:23.633Z,247.50
2023-04-18T11:02:23.657Z,253.12
2023-04-18T11:03:23.643Z,225.00
2023-04-18T11:04:23.564Z,230.62
2023-04-18T11:05:23.538Z,213.75
2023-04-18T11:06:23.545Z,236.25
2023-04-18T11:07:23.495Z,270.00
2023-04-18T11:08:23.493Z,275.62
2023-04-18T11:09:23.465Z,264.38
2023-04-18T11:10:23.472Z,225.00
2023-04-18T11:11:23.475Z,180.00
2023-04-18T11:12:23.433Z,191.25
2023-04-18T11:13:23.437Z,180.00
2023-04-18T11:14:23.409Z,174.38
2023-04-18T11:15:23.481Z,151.88
2023-04-18T11:16:23.419Z,163.12
2023-04-18T11:17:23.486Z,185.62
2023-04-18T11:18:23.402Z,196.88
2023-04-18T11:19:23.400Z,230.62
2023-04-18T11:20:23.434Z,196.88
2023-04-18T11:21:23.351Z,174.38
2023-04-18T11:22:23.341Z,168.75
2023-04-18T11:23:23.339Z,174.38
2023-04-18T11:24:23.317Z,163.12
2023-04-18T11:25:23.397Z,135.00
2023-04-18T11:26:23.306Z,123.75
2023-04-18T11:27:23.286Z,106.88
2023-04-18T11:28:23.383Z,101.25
2023-04-18T11:29:23.252Z,95.62
2023-04-18T11:30:23.271Z,106.88
2023-04-18T11:31:23.299Z,95.62
2023-04-18T11:32:23.479Z,95.62
2023-04-18T11:33:23.223Z,101.25
2023-04-18T11:34:23.232Z,106.88
2023-04-18T11:35:23.219Z,129.38
2023-04-18T11:36:23.187Z,146.25
2023-04-18T11:37:23.156Z,112.50
2023-04-18T11:38:24.282Z,95.62
2023-04-18T11:39:23.159Z,90.00
2023-04-18T11:40:23.130Z,106.88
2023-04-18T11:41:23.132Z,129.38
2023-04-18T11:42:23.120Z,112.50
2023-04-18T11:43:23.124Z,135.00
2023-04-18T11:44:23.110Z,180.00
2023-04-18T11:45:23.106Z,174.38
2023-04-18T11:46:23.206Z,140.62
2023-04-18T11:47:23.198Z,157.50
2023-04-18T11:48:23.106Z,151.88
2023-04-18T11:49:23.748Z,123.75
2023-04-18T11:50:23.086Z,123.75
2023-04-18T11:51:23.741Z,129.38
2023-04-18T11:52:23.031Z,163.12
2023-04-18T11:53:23.997Z,146.25
2023-04-18T11:54:23.029Z,163.12
2023-04-18T11:55:23.129Z,208.12
2023-04-18T11:56:22.970Z,225.00
2023-04-18T11:57:23.206Z,213.75
2023-04-18T11:58:22.990Z,225.00
2023-04-18T11:59:23.716Z,151.88
2023-04-18T12:00:22.935Z,151.88
2023-04-18T12:01:23.637Z,208.12
2023-04-18T12:02:23.109Z,185.62
2023-04-18T12:03:23.102Z,140.62
2023-04-18T12:04:23.092Z,123.75
2023-04-18T12:05:23.128Z,112.50
2023-04-18T12:06:22.937Z,112.50
2023-04-18T12:07:22.856Z,112.50
2023-04-18T12:08:22.849Z,140.62
2023-04-18T12:09:22.856Z,180.00
2023-04-18T12:10:22.829Z,225.00
2023-04-18T12:11:22.800Z,264.38
2023-04-18T12:12:22.779Z,303.75
2023-04-18T12:13:22.802Z,337.50
2023-04-18T12:14:22.777Z,331.88
2023-04-18T12:15:22.764Z,309.38
2023-04-18T12:16:22.800Z,326.25
2023-04-18T12:17:22.738Z,326.25
2023-04-18T12:18:22.756Z,326.25
2023-04-18T12:19:22.726Z,326.25
2023-04-18T12:20:22.735Z,286.88
2023-04-18T12:21:22.708Z,298.12
2023-04-18T12:22:22.692Z,320.62
2023-04-18T12:23:22.707Z,382.50
2023-04-18T12:24:23.670Z,343.12
2023-04-18T12:25:25.882Z,298.12
2023-04-18T12:26:22.662Z,292.50
2023-04-18T12:27:22.633Z,337.50
2023-04-18T12:28:22.631Z,337.50
2023-04-18T12:29:22.610Z,292.50
2023-04-18T12:30:22.618Z,270.00
2023-04-18T12:31:22.621Z,281.25
2023-04-18T12:32:22.640Z,247.50
2023-04-18T12:33:22.558Z,208.12
2023-04-18T12:34:22.634Z,241.88
2023-04-18T12:35:22.561Z,219.38
2023-04-18T12:36:22.546Z,196.88
2023-04-18T12:37:22.553Z,247.50
2023-04-18T12:38:22.529Z,219.38
2023-04-18T12:39:22.503Z,185.62
2023-04-18T12:40:22.518Z,196.88
2023-04-18T12:41:22.475Z,247.50
2023-04-18T12:42:22.491Z,264.38
2023-04-18T12:43:22.467Z,236.25
2023-04-18T12:44:22.443Z,219.38
2023-04-18T12:45:22.452Z,236.25
2023-04-18T12:46:22.518Z,247.50
2023-04-18T12:47:22.459Z,236.25
2023-04-18T12:48:22.410Z,185.62
2023-04-18T12:49:22.408Z,208.12
2023-04-18T12:50:22.397Z,225.00
2023-04-18T12:51:22.388Z,219.38